USWMetar Object ( [_raw:protected] => KPAH 250553Z AUTO 20005KT 10SM CLR 16/12 A2975 RMK AO2 SLP070 T01610122 10222 20144 402560083 53002 [_parsed:protected] => [data] => stdClass Object ( [time] => 2017/04/25 05:53 [altimeter] => 100734 [cavok] => [cloud] => [cloud_ceiling] => [icao_code] => KPAH [visibility] => [wind] => Array ( [direction] => 200 [speed] => 5 [gusting] => 0 [variation] => ) ) [temperature] => 16 [dewpoint] => 12 )

61
Clear
No alerts for this area.
Overnight
L
52
Mostly Clear
Tuesday
H
80
Sunny
Tuesday Night
L
60
Mostly Clear
Wednesday
H
79
Partly Sunny
Wednesday Night
L
59
Chance Showers And Thunderstorms
Thursday
H
70
Showers And Thunderstorms Likely
Thursday Night
L
55
Mostly Cloudy then Slight Chance Rain Showers
Friday
H
77
Chance Showers And Thunderstorms
Friday Night
L
65
Showers And Thunderstorms Likely
Saturday
H
83
Showers And Thunderstorms Likely
Saturday Night
L
66
Showers And Thunderstorms Likely
Sunday
H
76
Showers And Thunderstorms Likely
Sunday Night
L
53
Showers And Thunderstorms Likely
Monday
H
67
Chance Showers And Thunderstorms
Temperature61
Humidity77.68%
Feels Like32
Wind SpeedSSW 3 MPH
Wind GustNone
Barometer29.75 in
Visability10 mi
Dewpoint54

- 01:55 am
- 02:02 pm
- 12:59 am
- 01:23 pm